New Quay, United Kingdom
Current Conditions -  °F | °C
As of 6:50 PM on Thursday 30 Oct 2014 (Local Time) from EGOP Reporting Station
Broken Clouds Broken Clouds  
Wind Chill: 59°   Ceiling: 3000
Heat Index: 59°   Visibility: 3mi
Dew Point: 57°   Wind: 17mph
Humidity: 94%   Direction: 170°S
Pressure: 29.97"   Gusts: NA
Location:  52.21°N, 4.37°W
Report Text: EGOP 301850Z AUTO 17015KT 5000 // FEW013/// BKN030/// 15/14 Q1015
Loading
Personal Weather Stations






























Interactive Weather Map
Tropical Storm Tracking
New forecast layout! Learn more

10-Day Weather Forecast

Advertisements
Track Severe Weather on mobile